createdAt,value
2023-05-04T00:01:16.377Z,98322.75
2023-05-04T00:05:21.995Z,98322.34
2023-05-04T00:09:27.356Z,98319.47
2023-05-04T00:13:30.725Z,98307.66
2023-05-04T00:17:34.384Z,98308.09
2023-05-04T00:21:39.199Z,98321.50
2023-05-04T00:25:42.500Z,98317.38
2023-05-04T00:29:46.508Z,98321.06
2023-05-04T00:33:49.705Z,98310.69
2023-05-04T00:37:54.579Z,98304.69
2023-05-04T00:41:57.820Z,98292.75
2023-05-04T00:46:01.427Z,98300.94
2023-05-04T00:50:07.000Z,98292.88
2023-05-04T00:54:13.263Z,98298.34
2023-05-04T00:58:17.154Z,98296.97
2023-05-04T01:02:21.920Z,98297.25
2023-05-04T01:06:38.022Z,98301.06
2023-05-04T01:10:48.941Z,98296.41
2023-05-04T01:14:54.419Z,98300.56
2023-05-04T01:18:57.991Z,98299.59
2023-05-04T01:23:03.749Z,98303.69
2023-05-04T01:27:13.663Z,98306.66
2023-05-04T01:31:20.845Z,98307.75
2023-05-04T01:35:24.564Z,98306.94
2023-05-04T01:39:30.154Z,98295.72
2023-05-04T01:43:34.031Z,98299.25
2023-05-04T01:47:37.435Z,98305.28
2023-05-04T01:51:42.191Z,98302.81
2023-05-04T01:55:49.126Z,98305.41
2023-05-04T01:59:52.940Z,98306.34
2023-05-04T02:03:56.585Z,98299.53
2023-05-04T02:08:00.220Z,98301.31
2023-05-04T02:12:05.047Z,98305.69
2023-05-04T02:16:11.710Z,98302.50
2023-05-04T02:20:15.339Z,98300.16
2023-05-04T02:24:19.024Z,98299.50
2023-05-04T02:28:23.653Z,98299.75
2023-05-04T02:32:28.139Z,98297.41
2023-05-04T02:36:31.699Z,98298.50
2023-05-04T02:40:35.210Z,98298.88
2023-05-04T02:44:40.194Z,98302.56
2023-05-04T02:48:43.609Z,98302.00
2023-05-04T02:52:46.847Z,98297.19
2023-05-04T02:56:50.480Z,98299.34
2023-05-04T03:00:57.409Z,98304.81
2023-05-04T03:05:00.928Z,98301.88
2023-05-04T03:09:05.007Z,98297.09
2023-05-04T03:13:08.828Z,98299.25
2023-05-04T03:17:13.891Z,98308.09
2023-05-04T03:21:17.475Z,98309.31
2023-05-04T03:25:20.824Z,98308.72
2023-05-04T03:29:27.600Z,98307.22
2023-05-04T03:33:32.106Z,98311.56
2023-05-04T03:37:35.926Z,98309.22
2023-05-04T03:41:39.069Z,98312.66
2023-05-04T03:45:42.610Z,98310.19
2023-05-04T03:49:47.798Z,98311.81
2023-05-04T03:53:51.254Z,98320.44
2023-05-04T03:57:54.472Z,98325.38
2023-05-04T04:01:57.809Z,98314.63
2023-05-04T04:06:03.607Z,98323.53
2023-05-04T04:10:08.126Z,98328.22
2023-05-04T04:14:11.360Z,98332.88
2023-05-04T04:18:14.915Z,98333.47
2023-05-04T04:22:19.771Z,98337.31
2023-05-04T04:26:23.654Z,98338.56
2023-05-04T04:30:26.758Z,98345.84
2023-05-04T04:34:30.354Z,98340.28
2023-05-04T04:38:35.028Z,98343.19
2023-05-04T04:42:38.895Z,98343.50
2023-05-04T04:46:44.776Z,98353.09
2023-05-04T04:50:49.353Z,98344.66
2023-05-04T04:54:54.224Z,98350.72
2023-05-04T04:58:58.964Z,98359.50
2023-05-04T05:03:03.273Z,98357.09
2023-05-04T05:07:08.878Z,98351.09
2023-05-04T05:11:13.511Z,98364.00
2023-05-04T05:15:17.630Z,98366.75
2023-05-04T05:19:23.152Z,98355.56
2023-05-04T05:23:28.081Z,98364.34
2023-05-04T05:27:37.429Z,98363.41
2023-05-04T05:31:41.559Z,98358.06
2023-05-04T05:35:45.008Z,98360.53
2023-05-04T05:39:49.838Z,98354.25
2023-05-04T05:43:55.020Z,98350.38
2023-05-04T05:47:59.354Z,98343.94
2023-05-04T05:52:02.946Z,98343.66
2023-05-04T05:56:06.772Z,98342.53
2023-05-04T06:00:13.349Z,98349.09
2023-05-04T06:04:17.122Z,98350.56
2023-05-04T06:08:20.609Z,98344.91
2023-05-04T06:12:23.962Z,98340.03
2023-05-04T06:16:29.920Z,98337.09
2023-05-04T06:20:33.405Z,98338.25
2023-05-04T06:24:36.977Z,98333.22
2023-05-04T06:28:41.267Z,98331.28
2023-05-04T06:32:47.466Z,98332.50
2023-05-04T06:36:51.459Z,98335.19
2023-05-04T06:40:55.133Z,98340.97
2023-05-04T06:45:01.531Z,98342.97
2023-05-04T06:49:07.313Z,98339.06
2023-05-04T06:53:12.807Z,98338.41
2023-05-04T06:57:16.404Z,98337.34
2023-05-04T07:01:19.869Z,98328.94
2023-05-04T07:05:25.233Z,98330.38
2023-05-04T07:09:30.235Z,98330.19
2023-05-04T07:13:33.933Z,98327.06
2023-05-04T07:17:38.466Z,98321.00
2023-05-04T07:21:43.157Z,98320.75
2023-05-04T07:25:46.423Z,98317.00
2023-05-04T07:29:51.502Z,98310.91
2023-05-04T07:33:55.013Z,98315.28
2023-05-04T07:37:59.860Z,98310.13
2023-05-04T07:42:04.151Z,98303.50
2023-05-04T07:46:08.066Z,98305.09
2023-05-04T07:50:12.479Z,98301.97
2023-05-04T07:54:18.919Z,98300.84
2023-05-04T07:58:23.604Z,98299.16
2023-05-04T08:02:26.707Z,98293.06
2023-05-04T08:06:30.683Z,98281.88
2023-05-04T08:10:37.701Z,98278.03
2023-05-04T08:14:41.307Z,98286.56
2023-05-04T08:18:45.503Z,98278.19
2023-05-04T08:22:49.220Z,98287.00
2023-05-04T08:27:04.243Z,98280.19
2023-05-04T08:31:11.626Z,98279.28
2023-05-04T08:35:15.535Z,98273.72
2023-05-04T08:39:20.877Z,98277.94
2023-05-04T08:43:27.474Z,98277.28
2023-05-04T08:47:31.222Z,98271.41
2023-05-04T08:51:37.487Z,98263.44
2023-05-04T08:55:45.353Z,98258.28
2023-05-04T08:59:52.612Z,98253.28
2023-05-04T09:03:56.217Z,98251.31
2023-05-04T09:07:59.627Z,98256.06
2023-05-04T09:12:03.236Z,98250.38
2023-05-04T09:16:14.033Z,98256.53
2023-05-04T09:20:17.974Z,98246.88
2023-05-04T09:24:31.931Z,98249.22
2023-05-04T09:28:37.546Z,98241.28
2023-05-04T09:32:49.039Z,98248.84
2023-05-04T09:37:02.686Z,98237.91
2023-05-04T09:41:06.744Z,98232.19
2023-05-04T09:45:11.377Z,98234.75
2023-05-04T09:49:16.430Z,98225.22
2023-05-04T09:53:23.828Z,98223.50
2023-05-04T09:57:28.592Z,98217.69
2023-05-04T10:01:32.497Z,98220.03
2023-05-04T10:05:40.510Z,98216.06
2023-05-04T10:09:44.278Z,98214.28
2023-05-04T10:13:48.285Z,98200.09
2023-05-04T10:18:10.612Z,98192.91
2023-05-04T10:22:40.185Z,98189.91
2023-05-04T10:26:59.931Z,98181.00
2023-05-04T10:31:04.756Z,98180.09
2023-05-04T10:35:09.374Z,98173.38
2023-05-04T10:39:24.941Z,98168.94
2023-05-04T10:43:30.535Z,98162.31
2023-05-04T10:47:36.193Z,98164.34
2023-05-04T10:51:49.010Z,98155.09
2023-05-04T10:55:54.653Z,98157.56
2023-05-04T10:59:59.642Z,98152.94
2023-05-04T11:04:03.561Z,98143.78
2023-05-04T11:08:17.591Z,98144.41
2023-05-04T11:12:23.022Z,98134.84
2023-05-04T11:16:27.519Z,98128.78
2023-05-04T11:20:31.141Z,98127.44
2023-05-04T11:24:45.207Z,98120.03
2023-05-04T11:28:51.326Z,98116.94
2023-05-04T11:32:57.666Z,98106.59
2023-05-04T11:37:03.039Z,98096.47
2023-05-04T11:41:06.378Z,98097.16
2023-05-04T11:45:21.944Z,98096.88
2023-05-04T11:49:27.171Z,98087.66
2023-05-04T11:53:39.424Z,98095.88
2023-05-04T11:57:43.102Z,98095.00
2023-05-04T12:01:48.152Z,98093.72
2023-05-04T12:05:53.073Z,98089.25
2023-05-04T12:09:56.491Z,98080.72
2023-05-04T12:14:05.381Z,98087.97
2023-05-04T12:18:22.822Z,98073.06
2023-05-04T12:22:30.426Z,98076.84
2023-05-04T12:26:34.862Z,98068.66
2023-05-04T12:30:38.480Z,98071.91
2023-05-04T12:34:43.397Z,98067.47
2023-05-04T12:38:47.056Z,98060.59
2023-05-04T12:42:51.043Z,98049.94
2023-05-04T12:46:56.043Z,98046.19
2023-05-04T12:51:02.218Z,98050.16
2023-05-04T12:55:07.177Z,98051.59
2023-05-04T12:59:10.561Z,98050.09
2023-05-04T13:03:15.258Z,98037.44
2023-05-04T13:07:20.634Z,98036.13
2023-05-04T13:11:25.350Z,98024.41
2023-05-04T13:15:29.279Z,98024.00
2023-05-04T13:19:33.245Z,98020.84
2023-05-04T13:23:38.175Z,98007.22
2023-05-04T13:27:43.589Z,97997.34
2023-05-04T13:31:47.163Z,97992.50
2023-05-04T13:35:50.604Z,97997.72
2023-05-04T13:39:55.396Z,97985.22
2023-05-04T13:43:58.827Z,97987.13
2023-05-04T13:48:04.706Z,97979.16
2023-05-04T13:52:08.668Z,97973.00
2023-05-04T13:56:13.932Z,97963.38
2023-05-04T14:00:19.222Z,97956.94
2023-05-04T14:04:23.456Z,97953.16
2023-05-04T14:08:27.574Z,97944.25
2023-05-04T14:12:32.311Z,97943.69
2023-05-04T14:16:37.484Z,97941.84
2023-05-04T14:20:41.393Z,97935.97
2023-05-04T14:24:46.687Z,97932.28
2023-05-04T14:28:51.989Z,97931.50
2023-05-04T14:32:56.161Z,97926.41
2023-05-04T14:37:00.122Z,97926.97
2023-05-04T14:41:04.261Z,97910.41
2023-05-04T14:45:12.670Z,97910.97
2023-05-04T14:49:34.869Z,97909.06
2023-05-04T14:53:41.264Z,97907.22
2023-05-04T14:57:46.658Z,97906.41
2023-05-04T15:01:52.411Z,97904.28
2023-05-04T15:05:56.525Z,97893.25
2023-05-04T15:10:00.412Z,97901.25
2023-05-04T15:14:03.596Z,97895.53
2023-05-04T15:18:09.065Z,97891.38
2023-05-04T15:22:12.534Z,97887.75
2023-05-04T15:26:16.636Z,97882.13
2023-05-04T15:30:20.781Z,97880.81
2023-05-04T15:34:26.020Z,97879.00
2023-05-04T15:38:29.447Z,97887.63
2023-05-04T15:42:36.773Z,97886.47
2023-05-04T15:46:40.144Z,97874.81
2023-05-04T15:50:45.688Z,97872.28
2023-05-04T15:54:49.190Z,97865.72
2023-05-04T15:58:53.162Z,97867.34
2023-05-04T16:02:56.906Z,97863.72
2023-05-04T16:07:02.656Z,97858.84
2023-05-04T16:11:07.806Z,97854.72
2023-05-04T16:15:12.535Z,97851.69
2023-05-04T16:19:15.666Z,97854.28
2023-05-04T16:23:21.499Z,97846.19
2023-05-04T16:27:26.890Z,97851.44
2023-05-04T16:31:31.076Z,97849.16
2023-05-04T16:35:36.967Z,97841.75
2023-05-04T16:39:41.197Z,97843.84
2023-05-04T16:43:44.954Z,97844.91
2023-05-04T16:47:48.480Z,97844.38
2023-05-04T16:51:53.844Z,97849.09
2023-05-04T16:55:58.274Z,97854.59
2023-05-04T17:00:01.664Z,97857.63
2023-05-04T17:04:05.009Z,97856.78
2023-05-04T17:08:09.753Z,97857.66
2023-05-04T17:12:15.268Z,97845.63
2023-05-04T17:16:19.688Z,97840.81
2023-05-04T17:20:25.211Z,97842.47
2023-05-04T17:24:29.114Z,97844.13
2023-05-04T17:28:33.675Z,97841.25
2023-05-04T17:32:37.768Z,97847.22
2023-05-04T17:36:40.977Z,97850.53
2023-05-04T17:40:48.286Z,97852.38
2023-05-04T17:44:53.061Z,97861.13
2023-05-04T17:48:58.661Z,97856.66
2023-05-04T17:53:01.987Z,97858.06
2023-05-04T17:57:06.847Z,97856.97
2023-05-04T18:01:11.745Z,97868.06
2023-05-04T18:05:17.950Z,97857.19
2023-05-04T18:09:21.151Z,97860.44
2023-05-04T18:13:24.933Z,97866.75
2023-05-04T18:17:30.573Z,97870.19
2023-05-04T18:21:36.391Z,97878.84
2023-05-04T18:25:40.556Z,97893.53
2023-05-04T18:29:44.109Z,97900.16
2023-05-04T18:33:49.687Z,97903.84
2023-05-04T18:37:52.831Z,97898.03
2023-05-04T18:41:56.563Z,97903.16
2023-05-04T18:46:00.581Z,97907.28
2023-05-04T18:50:06.675Z,97900.84
2023-05-04T18:54:11.020Z,97910.16
2023-05-04T18:58:14.673Z,97911.22
2023-05-04T19:02:18.523Z,97919.94
2023-05-04T19:06:23.824Z,97910.28
2023-05-04T19:10:27.117Z,97917.81
2023-05-04T19:14:32.749Z,97915.50
2023-05-04T19:18:36.502Z,97912.97
2023-05-04T19:22:42.290Z,97916.94
2023-05-04T19:26:45.978Z,97917.50
2023-05-04T19:30:51.992Z,97917.88
2023-05-04T19:34:56.361Z,97912.19
2023-05-04T19:39:01.684Z,97913.19
2023-05-04T19:43:06.651Z,97919.41
2023-05-04T19:47:10.400Z,97917.78
2023-05-04T19:51:17.757Z,97921.22
2023-05-04T19:55:23.292Z,97908.91
2023-05-04T19:59:27.068Z,97913.88
2023-05-04T20:03:30.638Z,97908.28
2023-05-04T20:07:34.027Z,97915.50
2023-05-04T20:11:40.104Z,97916.22
2023-05-04T20:15:43.567Z,97918.94
2023-05-04T20:19:47.818Z,97915.13
2023-05-04T20:23:51.129Z,97913.31
2023-05-04T20:27:56.765Z,97911.47
2023-05-04T20:32:02.086Z,97921.09
2023-05-04T20:36:07.349Z,97910.78
2023-05-04T20:40:12.518Z,97911.72
2023-05-04T20:44:17.342Z,97917.34
2023-05-04T20:48:20.545Z,97904.66
2023-05-04T20:52:24.783Z,97900.44
2023-05-04T20:56:29.104Z,97901.13
2023-05-04T21:00:34.081Z,97897.41
2023-05-04T21:04:37.738Z,97898.41
2023-05-04T21:08:41.913Z,97891.72
2023-05-04T21:12:45.297Z,97883.22
2023-05-04T21:16:50.438Z,97889.97
2023-05-04T21:20:53.575Z,97882.97
2023-05-04T21:24:57.713Z,97891.00
2023-05-04T21:29:01.570Z,97888.09
2023-05-04T21:33:07.113Z,97881.53
2023-05-04T21:37:10.378Z,97885.03
2023-05-04T21:41:15.331Z,97883.56
2023-05-04T21:45:18.873Z,97894.56
2023-05-04T21:49:24.188Z,97901.25
2023-05-04T21:53:27.597Z,97891.50
2023-05-04T21:57:34.084Z,97885.94
2023-05-04T22:01:37.234Z,97884.66
2023-05-04T22:05:42.638Z,97892.34
2023-05-04T22:09:45.992Z,97883.22
2023-05-04T22:13:50.107Z,97885.06
2023-05-04T22:17:53.363Z,97875.63
2023-05-04T22:21:58.339Z,97889.34
2023-05-04T22:26:01.961Z,97882.03
2023-05-04T22:30:06.114Z,97888.41
2023-05-04T22:34:10.157Z,97885.31
2023-05-04T22:38:15.602Z,97886.28
2023-05-04T22:42:18.827Z,97880.56
2023-05-04T22:46:22.562Z,97883.84
2023-05-04T22:50:26.520Z,97883.19
2023-05-04T22:54:32.134Z,97868.50
2023-05-04T22:58:35.128Z,97871.03
2023-05-04T23:02:38.682Z,97873.19
2023-05-04T23:06:42.322Z,97871.72
2023-05-04T23:10:50.097Z,97865.81
2023-05-04T23:14:54.719Z,97859.94
2023-05-04T23:18:59.102Z,97858.31
2023-05-04T23:23:02.306Z,97865.50
2023-05-04T23:27:07.665Z,97854.88
2023-05-04T23:31:11.548Z,97869.38
2023-05-04T23:35:15.717Z,97874.91
2023-05-04T23:39:19.038Z,97861.88
2023-05-04T23:43:24.823Z,97858.47
2023-05-04T23:47:28.414Z,97838.41
2023-05-04T23:51:33.590Z,97842.66
2023-05-04T23:55:36.885Z,97841.69
2023-05-04T23:59:42.889Z,97842.72
